Skykomish, WA

3:16 PM PDT on May 24, 2015 (GMT -0700)
MesoWest | | Change Station
CLOSE
Current Station
Personal Weather Station
Location: Skykomish, WA
Elevation: 3999 ft
Nearby Weather Stations

Elev 3999 ft 47.75 °N, 121.09 °W | Updated 13 hours ago

Cloudy
Cloudy
62 °F
Feels Like 62 °F
N
7
Wind Variable Wind from WNW
Gusts mph

Today
High -- | Low -- °F
--% Chance of Precip.
Yesterday
High -- | Low -- °F
Precip. -- in
5:16 AM 8:46 PM
Waxing Crescent, 42% visible
Pressure 30.07 in
Visibility 6.0 miles
Clouds Mostly Cloudy 3000 ft
Overcast 4800 ft
Dew Point 51 °F
Humidity 67%
Rainfall in
Snow Depth Not available.
UV 3 out of 12
Pollen 8.00 out of 12
Air Quality Not available.
Flu Activity Sporadic
SPECI KRNT 242202Z VRB04KT 6SM HZ BKN030 OVC048 18/10 A3007 RMK AO2 T01780100 $

More Conditions Fewer Conditions

Pressure 30.07 in
Visibility 6.0 miles
Clouds Mostly Cloudy 3000 ft
Overcast 4800 ft
Dew Point 51 °F
Humidity 67%
Rainfall in
Snow Depth Not available.
UV 3 out of 12
Pollen 8.00 out of 12
Air Quality Not available.
Flu Activity Sporadic
SPECI KRNT 242202Z VRB04KT 6SM HZ BKN030 OVC048 18/10 A3007 RMK AO2 T01780100 $

More Conditions Fewer Conditions

10-Day Weather Forecast

Almanac

Astronomy

May. 24, 2015 Rise Set
Actual Time
Civil Twilight
Nautical Twilight
Astronomical Twilight
Moon
Length of Visible Light
Length of Day
Tomorrow will be .
, % of the Moon is Illuminated

Today's Extremes

State Highs State Lows

Community

WunderPhotos

Upload Photos

1,823,877 photos uploaded!

WunderBlogs® & News

Nearby

Air Quality

  Air Quality AQ Index Pollutant
Not available.

Snow Depth

Station Depth Elevation

Earthquake Activity

City Distance Mag. Time & Date
Minimum magnitude displayed is 2.5.

Coastal Water Temperatures

Place Temperature

Stations

Nearby Weather Stations

Station Location Temp. Windchill Dew Point Humidity Wind Precip. Elev Updated Type